Time;durP1;ratioP1;P1;durP2;ratioP2;P2;SDS_P1;SDS_P2;PMS_P1;PMS_P2;Temp;Humidity;BMP_temperature;BMP_pressure;BME280_temperature;BME280_humidity;BME280_pressure;Samples;Min_cycle;Max_cycle;Signal;HPM_P1;HPM_P2
2023/03/13 00:00:18;;;;;;;;;1.50;1.50;;;;;22.28;40.44;100106.31;5063360;28;60048;-76
2023/03/13 00:02:44;;;;;;;;;1.00;1.00;;;;;22.25;40.74;100093.19;5068081;28;45249;-76
2023/03/13 00:05:10;;;;;;;;;1.00;1.00;;;;;22.27;41.06;100085.94;5068541;28;45332;-76
2023/03/13 00:07:36;;;;;;;;;3.00;1.00;;;;;22.26;40.47;100085.06;5053447;28;45391;-75
2023/03/13 00:10:01;;;;;;;;;1.00;1.00;;;;;22.26;40.72;100089.56;5068579;28;45566;-75
2023/03/13 00:12:27;;;;;;;;;2.00;1.00;;;;;22.25;40.94;100093.19;5057625;28;48319;-77
2023/03/13 00:14:52;;;;;;;;;2.00;1.00;;;;;22.22;40.83;100078.31;5050841;28;45389;-77
2023/03/13 00:17:18;;;;;;;;;1.00;1.00;;;;;22.25;40.93;100079.88;5074027;28;67570;-77
2023/03/13 00:19:43;;;;;;;;;0.50;0.50;;;;;22.23;40.85;100081.84;5067373;28;45675;-77
2023/03/13 00:22:08;;;;;;;;;1.50;0.50;;;;;22.23;40.47;100076.50;5076349;27;69739;-77
2023/03/13 00:24:34;;;;;;;;;1.00;1.00;;;;;22.25;40.48;100085.22;5098398;27;45435;-76
2023/03/13 00:27:02;;;;;;;;;1.25;1.00;;;;;22.27;41.12;100088.59;5097957;27;45693;-76
2023/03/13 00:29:28;;;;;;;;;2.25;1.00;;;;;22.26;40.65;100081.56;5078625;27;45733;-76
2023/03/13 00:31:53;;;;;;;;;0.75;0.75;;;;;22.24;40.72;100072.84;5090291;27;45504;-76
2023/03/13 00:34:19;;;;;;;;;1.00;1.00;;;;;22.24;41.08;100062.19;5095370;27;71815;-76
2023/03/13 00:36:44;;;;;;;;;2.25;1.00;;;;;22.20;41.18;100058.94;5087337;27;57370;-76
2023/03/13 00:39:09;;;;;;;;;0.25;0.25;;;;;22.24;40.63;100065.72;5087354;27;45424;-76
2023/03/13 00:41:36;;;;;;;;;0.75;0.00;;;;;22.26;40.94;100068.25;5099845;27;75935;-76
2023/03/13 00:44:01;;;;;;;;;0.75;0.00;;;;;22.25;40.67;100062.06;5099312;27;45410;-76
2023/03/13 00:46:28;;;;;;;;;1.50;0.25;;;;;22.24;41.05;100060.38;5101892;27;45331;-76
2023/03/13 00:48:54;;;;;;;;;0.50;0.50;;;;;22.24;40.85;100060.38;5097376;27;45356;-76
2023/03/13 00:51:20;;;;;;;;;1.00;1.00;;;;;22.22;40.74;100059.66;5101482;27;46477;-76
2023/03/13 00:53:45;;;;;;;;;1.50;1.00;;;;;22.22;40.88;100051.66;5111838;27;45676;-76
2023/03/13 00:56:13;;;;;;;;;1.75;1.00;;;;;22.25;41.10;100053.22;5092926;27;69370;-76
2023/03/13 00:58:40;;;;;;;;;2.00;1.00;;;;;22.24;41.10;100054.19;5090643;27;45441;-76
2023/03/13 01:01:13;;;;;;;;;1.00;1.00;;;;;22.25;40.70;100064.72;5093100;27;46234;-76
2023/03/13 01:03:41;;;;;;;;;0.00;0.00;;;;;22.24;40.65;100056.84;5088173;27;45328;-76
2023/03/13 01:06:09;;;;;;;;;1.00;1.00;;;;;22.26;40.76;100062.91;5099485;27;45363;-76
2023/03/13 01:08:35;;;;;;;;;0.50;0.50;;;;;22.24;40.78;100060.38;5087768;27;45430;-75
2023/03/13 01:11:12;;;;;;;;;3.00;1.00;;;;;22.21;40.57;100055.31;5094776;27;45389;-76
2023/03/13 01:13:37;;;;;;;;;1.00;1.00;;;;;22.23;41.03;100050.69;5088434;27;45673;-76
2023/03/13 01:16:06;;;;;;;;;0.00;0.00;;;;;22.24;40.87;100028.41;5091629;27;45237;-76
2023/03/13 01:18:33;;;;;;;;;1.00;1.00;;;;;22.23;41.13;100023.19;5082798;27;46261;-75
2023/03/13 01:20:58;;;;;;;;;0.00;0.00;;;;;22.24;40.84;100027.53;5072084;28;47428;-76
2023/03/13 01:23:25;;;;;;;;;2.00;1.00;;;;;22.24;41.16;100019.53;5112068;27;70731;-75
2023/03/13 01:25:50;;;;;;;;;1.00;1.00;;;;;22.22;41.17;100014.34;5094231;27;45402;-75
2023/03/13 01:28:15;;;;;;;;;0.25;0.25;;;;;22.23;40.97;100004.53;5098428;27;63380;-76
2023/03/13 01:30:41;;;;;;;;;0.75;0.75;;;;;22.23;41.04;100002.72;5092886;27;46059;-75
2023/03/13 01:33:06;;;;;;;;;1.00;1.00;;;;;22.23;40.93;99994.72;5110586;27;45370;-76
2023/03/13 01:35:31;;;;;;;;;0.00;0.00;;;;;22.22;41.01;99986.84;5095043;27;65794;-76
2023/03/13 01:37:57;;;;;;;;;1.00;1.00;;;;;22.19;41.12;99978.16;5102894;27;64027;-76
2023/03/13 01:40:22;;;;;;;;;1.00;0.25;;;;;22.19;40.97;99978.16;5101023;27;56694;-76
2023/03/13 01:42:53;;;;;;;;;0.00;0.00;;;;;22.18;40.85;99981.78;5073588;27;46019;-76
2023/03/13 01:45:49;;;;;;;;;2.25;0.75;;;;;22.22;40.85;99990.34;5099069;27;45673;-76
2023/03/13 01:48:15;;;;;;;;;2.00;1.00;;;;;22.22;41.05;99993.00;5109156;27;45364;-76
2023/03/13 01:50:40;;;;;;;;;1.75;1.00;;;;;22.19;41.11;99994.13;5107135;27;66453;-75
2023/03/13 01:53:05;;;;;;;;;1.75;1.00;;;;;22.17;40.67;99980.13;5093983;27;71637;-75
2023/03/13 01:55:32;;;;;;;;;1.00;1.00;;;;;22.19;41.14;99962.16;5087474;27;67803;-75
2023/03/13 01:57:57;;;;;;;;;1.00;0.50;;;;;22.22;40.55;99962.84;5096074;27;64370;-75
2023/03/13 02:00:24;;;;;;;;;0.50;0.50;;;;;22.22;41.09;99952.19;5093353;27;45545;-75
2023/03/13 02:02:52;;;;;;;;;1.50;0.00;;;;;22.19;40.60;99943.50;5085275;27;45364;-75
2023/03/13 02:05:25;;;;;;;;;1.00;1.00;;;;;22.18;40.57;99947.13;5081345;27;45340;-76
2023/03/13 02:08:02;;;;;;;;;1.00;1.00;;;;;22.19;40.92;99956.00;5096949;27;45422;-76
2023/03/13 02:10:30;;;;;;;;;5.25;1.00;;;;;22.19;41.05;99961.31;5081524;27;47451;-75
2023/03/13 02:12:56;;;;;;;;;1.00;1.00;;;;;22.17;41.19;99950.78;5114969;27;45295;-75
2023/03/13 02:15:23;;;;;;;;;1.00;1.00;;;;;22.21;41.20;99958.53;5089177;27;45304;-75
2023/03/13 02:17:49;;;;;;;;;0.00;0.00;;;;;22.19;40.86;99953.34;5078751;27;45489;-75
2023/03/13 02:20:17;;;;;;;;;1.00;1.00;;;;;22.17;41.21;99942.81;5102479;27;48601;-75
2023/03/13 02:22:42;;;;;;;;;1.00;1.00;;;;;22.19;40.89;99956.81;5100656;27;45828;-76
2023/03/13 02:25:23;;;;;;;;;1.00;1.00;;;;;22.19;41.06;99948.00;5106821;27;45555;-75
2023/03/13 02:27:56;;;;;;;;;2.00;1.25;;;;;22.18;40.90;99955.13;5108946;27;45395;-75
2023/03/13 02:30:22;;;;;;;;;2.00;1.00;;;;;22.18;41.03;99946.31;5074819;27;48437;-75
2023/03/13 02:32:47;;;;;;;;;1.50;1.50;;;;;22.15;41.13;99939.44;5100830;27;66962;-75
2023/03/13 02:35:15;;;;;;;;;4.00;1.00;;;;;22.18;41.10;99920.47;5106509;27;45334;-76
2023/03/13 02:37:42;;;;;;;;;0.25;0.25;;;;;22.17;40.68;99916.16;5089233;27;45408;-75
2023/03/13 02:40:14;;;;;;;;;1.00;1.00;;;;;22.17;41.11;99926.81;5095742;27;45497;-76
2023/03/13 02:42:41;;;;;;;;;0.75;0.75;;;;;22.15;40.75;99923.44;5109597;27;45469;-75
2023/03/13 02:45:07;;;;;;;;;1.00;1.00;;;;;22.17;40.81;99932.13;5084493;27;45548;-75
2023/03/13 02:47:32;;;;;;;;;2.50;1.00;;;;;22.15;40.88;99939.44;5082156;27;45808;-75
2023/03/13 02:49:58;;;;;;;;;1.00;1.00;;;;;22.16;40.59;99940.28;5096061;27;67259;-75
2023/03/13 02:52:27;;;;;;;;;3.00;1.00;;;;;22.15;41.12;99915.44;5079600;27;72919;-75
2023/03/13 02:54:57;;;;;;;;;1.00;1.00;;;;;22.15;41.06;99922.56;5090918;27;45663;-75
2023/03/13 02:57:23;;;;;;;;;1.50;1.00;;;;;22.09;41.08;99907.97;5091292;27;45451;-75
2023/03/13 02:59:48;;;;;;;;;3.75;1.25;;;;;22.15;40.63;99904.78;5081570;27;45636;-75
2023/03/13 03:02:14;;;;;;;;;2.50;2.50;;;;;22.14;41.10;99908.41;5085140;27;45453;-75
2023/03/13 03:04:39;;;;;;;;;3.00;2.00;;;;;22.13;40.99;99901.44;5093676;27;45522;-75
2023/03/13 03:07:04;;;;;;;;;3.00;2.00;;;;;22.15;40.98;99901.25;5092308;27;45535;-75
2023/03/13 03:09:30;;;;;;;;;2.00;1.00;;;;;22.14;41.21;99900.44;5105901;27;47144;-74
2023/03/13 03:11:55;;;;;;;;;1.50;1.50;;;;;22.13;40.80;99887.22;5095490;27;66214;-75
2023/03/13 03:14:20;;;;;;;;;2.75;1.00;;;;;22.12;40.71;99886.41;5079904;27;57897;-75
2023/03/13 03:16:46;;;;;;;;;1.25;1.25;;;;;22.11;40.57;99881.19;5100416;27;59638;-75
2023/03/13 03:19:11;;;;;;;;;2.00;1.25;;;;;22.13;41.02;99897.88;5110757;27;67351;-75
2023/03/13 03:21:37;;;;;;;;;3.00;2.25;;;;;22.13;41.10;99901.44;5096134;27;45331;-75
2023/03/13 03:24:03;;;;;;;;;2.75;2.00;;;;;22.11;40.72;99892.69;5094608;27;45574;-76
2023/03/13 03:26:28;;;;;;;;;1.50;1.00;;;;;22.13;40.90;99896.09;5088075;27;45362;-75
2023/03/13 03:28:54;;;;;;;;;2.00;1.00;;;;;22.12;40.65;99896.22;5079260;27;47271;-75
2023/03/13 03:31:19;;;;;;;;;3.00;2.00;;;;;22.14;41.05;99899.59;5089143;27;45346;-75
2023/03/13 03:33:45;;;;;;;;;1.00;1.00;;;;;22.12;40.76;99897.06;5109334;27;45503;-75
2023/03/13 03:36:16;;;;;;;;;1.25;1.25;;;;;22.13;40.58;99887.22;5109180;27;45498;-74
2023/03/13 03:38:42;;;;;;;;;3.00;1.25;;;;;22.11;41.05;99892.69;5074768;27;46884;-74
2023/03/13 03:41:08;;;;;;;;;4.75;2.00;;;;;22.13;41.03;99900.56;5106256;27;45520;-75
2023/03/13 03:43:34;;;;;;;;;3.50;1.00;;;;;22.12;40.84;99907.72;5115974;27;45697;-75
2023/03/13 03:46:00;;;;;;;;;2.00;2.00;;;;;22.09;40.79;99899.16;5077123;27;45417;-74
2023/03/13 03:48:25;;;;;;;;;2.00;2.00;;;;;22.11;40.51;99900.69;5080301;27;48206;-74
2023/03/13 03:50:50;;;;;;;;;1.50;1.00;;;;;22.10;41.11;99895.53;5100624;27;45442;-74
2023/03/13 03:53:16;;;;;;;;;1.00;1.00;;;;;22.09;40.55;99907.16;5070757;27;45395;-74
2023/03/13 03:55:41;;;;;;;;;6.25;1.00;;;;;22.10;40.60;99895.53;5070401;27;56323;-74
2023/03/13 03:58:06;;;;;;;;;1.50;1.50;;;;;22.11;40.71;99905.19;5119938;27;45442;-74
2023/03/13 04:00:32;;;;;;;;;2.50;1.00;;;;;22.10;40.67;99903.53;5083083;27;59908;-75
2023/03/13 04:02:57;;;;;;;;;2.75;1.00;;;;;22.09;40.92;99891.16;5082487;27;67350;-75
2023/03/13 04:05:23;;;;;;;;;2.00;1.00;;;;;22.11;40.54;99894.53;5114713;27;72037;-74
2023/03/13 04:07:48;;;;;;;;;1.50;1.50;;;;;22.08;41.18;99890.31;5076711;27;46812;-74
2023/03/13 04:10:14;;;;;;;;;1.00;1.00;;;;;22.10;41.00;99899.03;5073459;27;75406;-74
2023/03/13 04:12:40;;;;;;;;;4.00;1.00;;;;;22.09;41.12;99894.66;5111183;27;45542;-74
2023/03/13 04:15:05;;;;;;;;;2.50;1.50;;;;;22.07;40.66;99891.28;5093614;27;45876;-74
2023/03/13 04:17:31;;;;;;;;;2.00;1.00;;;;;22.09;41.01;99899.16;5092324;27;46785;-74
2023/03/13 04:19:56;;;;;;;;;1.50;1.50;;;;;22.09;40.96;99893.81;5123591;27;45476;-75
2023/03/13 04:22:21;;;;;;;;;3.00;1.00;;;;;22.07;40.57;99883.28;5109336;27;59579;-74
2023/03/13 04:24:47;;;;;;;;;1.00;1.00;;;;;22.07;40.67;99888.63;5091271;27;45468;-75
2023/03/13 04:27:12;;;;;;;;;2.25;2.00;;;;;22.09;41.05;99889.31;5083454;27;46935;-75
2023/03/13 04:29:38;;;;;;;;;1.00;1.00;;;;;22.08;40.70;99892.13;5098943;27;70388;-75
2023/03/13 04:32:03;;;;;;;;;1.00;1.00;;;;;22.08;41.08;99877.00;5091236;27;47555;-75
2023/03/13 04:34:29;;;;;;;;;1.00;1.00;;;;;22.05;41.07;99887.94;5120925;27;45471;-75
2023/03/13 04:36:54;;;;;;;;;1.00;1.00;;;;;22.04;40.59;99877.41;5091052;27;45422;-74
2023/03/13 04:39:24;;;;;;;;;3.00;1.00;;;;;22.07;40.44;99875.31;5110874;27;69236;-74
2023/03/13 04:41:50;;;;;;;;;1.00;1.00;;;;;22.07;40.73;99880.63;5084434;27;45400;-74
2023/03/13 04:44:15;;;;;;;;;2.00;1.25;;;;;22.07;40.72;99893.13;5118193;27;45490;-74
2023/03/13 04:46:41;;;;;;;;;2.00;1.00;;;;;22.07;40.52;99888.63;5108573;27;63010;-74
2023/03/13 04:49:06;;;;;;;;;3.00;1.00;;;;;22.07;40.96;99888.63;5099627;27;71882;-75
2023/03/13 04:51:32;;;;;;;;;1.00;1.00;;;;;22.08;40.54;99893.00;5093633;27;45327;-74
2023/03/13 04:53:57;;;;;;;;;2.00;2.00;;;;;22.07;40.81;99890.47;5100315;27;70879;-74
2023/03/13 04:56:25;;;;;;;;;1.50;1.25;;;;;22.07;40.43;99893.13;5096828;27;46562;-75
2023/03/13 04:58:51;;;;;;;;;2.75;1.75;;;;;22.07;40.61;99893.13;5089339;27;46217;-74
2023/03/13 05:01:17;;;;;;;;;4.75;1.75;;;;;22.02;40.75;99895.34;5108909;27;45574;-74
2023/03/13 05:03:42;;;;;;;;;1.00;1.00;;;;;22.03;40.76;99889.88;5100889;27;45560;-74
2023/03/13 05:06:08;;;;;;;;;2.50;0.75;;;;;22.06;40.79;99883.44;5082993;27;45965;-74
2023/03/13 05:08:35;;;;;;;;;1.00;1.00;;;;;22.04;40.98;99880.06;5103188;27;63780;-74
2023/03/13 05:11:00;;;;;;;;;1.00;1.00;;;;;22.07;40.75;99888.63;5123356;27;45527;-75
2023/03/13 05:13:25;;;;;;;;;0.50;0.50;;;;;22.06;41.04;99886.97;5098693;27;45253;-74
2023/03/13 05:15:51;;;;;;;;;1.00;1.00;;;;;22.04;41.17;99880.91;5094197;27;49516;-74
2023/03/13 05:18:16;;;;;;;;;2.00;1.00;;;;;22.04;40.90;99872.91;5104323;27;70824;-74
2023/03/13 05:20:41;;;;;;;;;1.00;1.00;;;;;22.04;40.77;99869.41;5086750;27;66687;-75
2023/03/13 05:23:07;;;;;;;;;1.00;1.00;;;;;22.03;40.58;99865.91;5083064;27;64585;-74
2023/03/13 05:25:32;;;;;;;;;2.00;1.00;;;;;22.06;40.80;99876.31;5100828;27;46319;-75
2023/03/13 05:27:57;;;;;;;;;2.00;2.00;;;;;22.03;40.62;99857.91;5120585;27;45379;-75
2023/03/13 05:30:23;;;;;;;;;0.75;0.75;;;;;22.04;41.08;99848.94;5109323;27;45436;-74
2023/03/13 05:32:53;;;;;;;;;2.50;1.00;;;;;22.02;40.72;99850.88;5095234;27;59745;-74
2023/03/13 05:35:19;;;;;;;;;1.75;1.00;;;;;22.05;41.06;99857.78;5086356;27;48028;-74
2023/03/13 05:37:45;;;;;;;;;3.00;1.25;;;;;22.01;41.03;99849.22;5103542;27;45405;-75
2023/03/13 05:40:11;;;;;;;;;2.00;2.00;;;;;22.04;41.05;99850.75;5111429;27;45503;-75
2023/03/13 05:42:36;;;;;;;;;1.00;1.00;;;;;22.04;40.60;99850.75;5087226;27;45322;-75
2023/03/13 05:45:02;;;;;;;;;1.00;1.00;;;;;22.04;40.94;99858.75;5115609;27;46181;-75
2023/03/13 05:47:27;;;;;;;;;1.25;1.25;;;;;22.04;40.98;99856.09;5107397;27;45290;-74
2023/03/13 05:49:53;;;;;;;;;1.00;1.00;;;;;22.03;40.51;99849.94;5084513;27;45397;-75
2023/03/13 05:52:18;;;;;;;;;1.75;1.75;;;;;22.02;40.79;99850.88;5091759;27;69588;-74
2023/03/13 05:54:43;;;;;;;;;1.50;1.00;;;;;22.00;40.38;99843.03;5095296;27;46213;-75
2023/03/13 05:57:09;;;;;;;;;2.00;1.00;;;;;22.02;40.74;99840.22;5112585;27;72165;-74
2023/03/13 05:59:34;;;;;;;;;1.00;1.00;;;;;21.99;40.70;99844.03;5088888;27;45666;-74
2023/03/13 06:01:59;;;;;;;;;3.00;2.00;;;;;22.03;40.98;99843.72;5097669;27;70839;-74
2023/03/13 06:04:28;;;;;;;;;1.00;1.00;;;;;21.99;40.68;99835.16;5094310;27;46032;-74
2023/03/13 06:06:53;;;;;;;;;1.50;1.00;;;;;22.02;41.07;99836.72;5093034;27;46060;-74
2023/03/13 06:09:19;;;;;;;;;2.00;2.00;;;;;22.02;41.04;99834.91;5103213;27;67078;-74
2023/03/13 06:11:44;;;;;;;;;2.25;1.00;;;;;21.99;40.88;99836.03;5096124;27;45507;-74
2023/03/13 06:14:09;;;;;;;;;1.00;1.00;;;;;22.00;40.86;99829.72;5098283;27;52501;-74
2023/03/13 06:16:35;;;;;;;;;2.25;1.00;;;;;22.03;40.95;99825.06;5088829;27;59484;-75
2023/03/13 06:19:01;;;;;;;;;3.75;1.00;;;;;22.04;40.67;99829.44;5074128;27;45367;-74
2023/03/13 06:21:26;;;;;;;;;1.00;1.00;;;;;22.07;40.67;99822.00;5112143;27;45442;-74
2023/03/13 06:23:51;;;;;;;;;2.00;1.00;;;;;22.07;40.58;99831.84;5087903;27;45333;-75
2023/03/13 06:26:17;;;;;;;;;1.75;1.75;;;;;22.07;40.77;99816.69;5096754;27;73152;-74
2023/03/13 06:28:42;;;;;;;;;1.00;1.00;;;;;22.08;40.91;99810.38;5100157;27;53666;-74
2023/03/13 06:31:07;;;;;;;;;1.00;1.00;;;;;22.10;41.04;99813.75;5090217;27;73646;-75
2023/03/13 06:33:33;;;;;;;;;2.00;0.75;;;;;22.13;41.36;99817.94;5090026;27;45216;-78
2023/03/13 06:36:00;;;;;;;;;1.00;1.00;;;;;22.11;41.11;99818.09;5083322;27;45428;-76
2023/03/13 06:38:26;;;;;;;;;2.00;1.50;;;;;22.15;41.08;99821.31;5098189;27;45920;-75
2023/03/13 06:40:51;;;;;;;;;2.25;2.00;;;;;22.15;41.08;99810.66;5089562;27;45620;-73
2023/03/13 06:43:16;;;;;;;;;1.25;1.25;;;;;22.17;41.49;99809.56;5086376;27;45725;-71
2023/03/13 06:45:42;;;;;;;;;3.25;2.25;;;;;22.17;41.29;99809.56;5094502;27;45515;-89
2023/03/13 06:48:07;;;;;;;;;3.75;2.50;;;;;22.11;41.35;99785.28;5098103;27;62747;-83
2023/03/13 06:50:37;;;;;;;;;2.50;1.25;;;;;22.22;41.28;99797.63;5094963;27;63935;-86
2023/03/13 06:53:02;;;;;;;;;3.00;2.50;;;;;22.23;41.63;99794.00;5092659;27;46220;-81
2023/03/13 06:55:27;;;;;;;;;4.00;1.75;;;;;22.21;41.33;99780.78;5097526;27;69776;-78
2023/03/13 06:57:53;;;;;;;;;2.00;2.00;;;;;22.22;41.19;99778.97;5089624;27;45316;-75
2023/03/13 07:00:19;;;;;;;;;4.75;3.00;;;;;22.25;41.46;99778.69;5095858;27;45470;-81
2023/03/13 07:02:44;;;;;;;;;3.75;2.00;;;;;22.21;41.48;99771.97;5108793;27;45965;-81
2023/03/13 07:05:09;;;;;;;;;2.00;2.00;;;;;22.22;41.26;99781.63;5102160;27;63185;-81
2023/03/13 07:07:35;;;;;;;;;1.00;1.00;;;;;22.27;41.84;99798.06;5085768;27;65833;-73
2023/03/13 07:10:00;;;;;;;;;5.50;4.00;;;;;22.26;41.30;99778.56;5077636;27;45715;-84
2023/03/13 07:12:26;;;;;;;;;2.00;2.00;;;;;22.26;41.37;99781.22;5094641;27;54377;-72
2023/03/13 07:14:51;;;;;;;;;3.00;2.00;;;;;22.27;41.63;99774.09;5098564;27;45408;-79
2023/03/13 07:17:16;;;;;;;;;2.00;2.00;;;;;22.25;41.35;99771.53;5076826;27;45692;-73
2023/03/13 07:19:42;;;;;;;;;5.00;3.25;;;;;22.27;41.41;99776.75;5096607;27;65241;-74
2023/03/13 07:22:07;;;;;;;;;8.00;4.50;;;;;22.26;41.32;99788.38;5095061;27;66289;-76
2023/03/13 07:24:32;;;;;;;;;6.75;4.50;;;;;22.25;41.52;99787.53;5100248;27;45709;-76
2023/03/13 07:26:58;;;;;;;;;4.00;4.00;;;;;22.23;41.30;99784.16;5094903;27;45433;-76
2023/03/13 07:29:23;;;;;;;;;6.25;4.25;;;;;22.25;41.44;99787.53;5112687;27;58228;-76
2023/03/13 07:31:49;;;;;;;;;3.00;3.00;;;;;22.23;41.62;99772.66;5087558;27;45513;-76
2023/03/13 07:34:15;;;;;;;;;3.00;3.00;;;;;22.25;41.49;99773.38;5082051;27;69798;-76
2023/03/13 07:36:43;;;;;;;;;6.25;4.25;;;;;22.25;41.61;99774.19;5077438;27;46024;-76
2023/03/13 07:39:08;;;;;;;;;3.00;3.00;;;;;22.25;41.86;99752.03;5118791;27;45500;-76
2023/03/13 07:41:34;;;;;;;;;5.25;3.00;;;;;22.23;41.73;99754.00;5119336;27;45403;-75
2023/03/13 07:43:59;;;;;;;;;5.75;3.75;;;;;22.25;41.76;99752.88;5105250;27;56787;-77
2023/03/13 07:46:24;;;;;;;;;5.75;4.00;;;;;22.26;41.55;99757.22;5095014;27;69267;-76
2023/03/13 07:48:51;;;;;;;;;4.50;3.00;;;;;22.26;41.78;99740.41;5095529;27;45189;-76
2023/03/13 07:51:21;;;;;;;;;2.75;2.00;;;;;22.28;41.28;99738.47;5090118;27;45590;-75
2023/03/13 07:53:47;;;;;;;;;2.00;2.00;;;;;22.27;41.02;99739.44;5095269;27;45197;-75
2023/03/13 07:56:14;;;;;;;;;4.00;2.00;;;;;22.29;41.03;99733.00;5085645;27;45838;-75
2023/03/13 07:58:41;;;;;;;;;2.00;2.00;;;;;22.30;41.59;99734.66;5098524;27;45833;-75
2023/03/13 08:01:21;;;;;;;;;3.00;2.50;;;;;22.32;41.67;99738.03;5079477;27;47157;-76
2023/03/13 08:03:49;;;;;;;;;2.00;2.00;;;;;22.33;41.05;99745.06;5096676;27;45415;-74
2023/03/13 08:06:19;;;;;;;;;4.00;2.25;;;;;22.34;41.34;99737.88;5080471;27;45614;-76
2023/03/13 08:08:45;;;;;;;;;4.00;2.25;;;;;22.34;41.01;99736.06;5095750;27;45387;-76
2023/03/13 08:11:11;;;;;;;;;4.00;2.50;;;;;22.35;41.04;99740.41;5084749;27;48203;-76
2023/03/13 08:13:37;;;;;;;;;2.00;1.50;;;;;22.36;41.63;99734.13;5106578;27;45480;-89
2023/03/13 08:16:11;;;;;;;;;2.25;2.25;;;;;22.37;41.37;99730.44;5093776;27;45458;-85
2023/03/13 08:18:38;;;;;;;;;3.00;2.00;;;;;22.40;40.91;99717.81;5104207;27;45246;-72
2023/03/13 08:21:24;;;;;;;;;2.00;1.00;;;;;22.37;41.03;99722.44;5087116;27;46553;-75
2023/03/13 08:23:54;;;;;;;;;1.75;1.75;;;;;22.41;41.59;99723.00;5117406;27;45240;-76
2023/03/13 08:26:21;;;;;;;;;4.75;3.00;;;;;22.42;41.30;99715.88;5087630;27;45399;-72
2023/03/13 08:28:51;;;;;;;;;2.00;0.25;;;;;22.42;41.38;99708.72;5081318;27;45355;-76
2023/03/13 08:31:20;;;;;;;;;4.50;1.00;;;;;22.46;41.06;99702.09;5100134;27;46236;-76
2023/03/13 08:33:46;;;;;;;;;5.75;2.00;;;;;22.48;41.07;99715.28;5094965;27;45341;-75
2023/03/13 08:36:16;;;;;;;;;2.00;2.00;;;;;22.49;41.07;99706.31;5093652;27;45312;-74
2023/03/13 08:38:43;;;;;;;;;1.25;1.25;;;;;22.49;41.29;99693.00;5098699;27;45466;-76
2023/03/13 08:41:09;;;;;;;;;2.50;1.75;;;;;22.49;41.25;99698.31;5100567;27;45561;-76
2023/03/13 08:43:34;;;;;;;;;2.00;1.00;;;;;22.51;41.54;99707.00;5094940;27;45398;-76
2023/03/13 08:45:59;;;;;;;;;1.00;1.00;;;;;22.50;40.76;99690.16;5109544;27;68206;-82
2023/03/13 08:48:25;;;;;;;;;2.50;1.00;;;;;22.50;41.41;99695.47;5088653;27;64079;-72
2023/03/13 08:51:04;;;;;;;;;3.25;2.00;;;;;22.54;41.76;99691.56;5097210;27;46182;-75
2023/03/13 08:53:32;;;;;;;;;2.00;2.00;;;;;22.53;41.62;99695.19;5108331;27;45780;-74
2023/03/13 08:55:57;;;;;;;;;5.00;3.00;;;;;22.59;41.32;99690.28;5084119;27;45446;-78
2023/03/13 08:58:23;;;;;;;;;2.00;2.00;;;;;22.62;41.56;99684.66;5114536;27;45355;-74
2023/03/13 09:00:48;;;;;;;;;2.00;2.00;;;;;22.58;41.62;99681.44;5097265;27;61180;-78
2023/03/13 09:03:14;;;;;;;;;2.25;2.25;;;;;22.69;41.18;99691.09;5116006;27;56404;-80
2023/03/13 09:05:39;;;;;;;;;4.25;2.00;;;;;22.68;41.28;99679.59;5101933;27;45462;-77
2023/03/13 09:08:05;;;;;;;;;3.75;3.00;;;;;22.72;41.57;99682.81;5110555;27;45601;-80
2023/03/13 09:10:34;;;;;;;;;1.75;1.75;;;;;22.79;41.35;99672.38;5084559;27;45794;-75
2023/03/13 09:12:59;;;;;;;;;6.25;3.25;;;;;22.79;41.07;99670.56;5079896;27;45838;-75
2023/03/13 09:15:25;;;;;;;;;3.25;3.25;;;;;22.81;41.04;99660.59;5115060;27;45236;-75
2023/03/13 09:17:50;;;;;;;;;2.00;2.00;;;;;22.85;41.21;99658.47;5112643;27;68086;-76
2023/03/13 09:20:17;;;;;;;;;2.00;2.00;;;;;22.88;41.25;99650.19;5079956;27;70266;-79
2023/03/13 09:22:43;;;;;;;;;5.25;2.50;;;;;22.89;41.03;99641.16;5094394;27;45532;-82
2023/03/13 09:25:08;;;;;;;;;2.25;2.00;;;;;22.90;40.94;99635.69;5080663;27;45533;-75
2023/03/13 09:27:34;;;;;;;;;4.00;2.00;;;;;22.95;41.49;99637.94;5081663;27;45424;-84
2023/03/13 09:29:59;;;;;;;;;3.00;2.00;;;;;22.99;40.81;99628.63;5112553;27;61083;-78
2023/03/13 09:32:24;;;;;;;;;3.00;3.00;;;;;22.99;41.12;99619.78;5119773;27;68906;-73
2023/03/13 09:34:50;;;;;;;;;5.00;4.00;;;;;23.03;41.22;99631.84;5098006;27;59308;-82
2023/03/13 09:37:15;;;;;;;;;2.00;2.00;;;;;23.05;40.90;99628.03;5087925;27;71608;-74
2023/03/13 09:39:40;;;;;;;;;2.75;1.00;;;;;23.09;41.16;99624.13;5091910;27;58884;-76
2023/03/13 09:42:15;;;;;;;;;2.00;2.00;;;;;23.12;41.22;99613.16;5093336;27;73148;-75
2023/03/13 09:45:00;;;;;;;;;3.25;3.25;;;;;23.15;40.74;99620.00;5104469;27;45430;-86
2023/03/13 09:47:33;;;;;;;;;2.00;2.00;;;;;23.18;41.18;99622.38;5121828;27;45492;-73
2023/03/13 09:50:11;;;;;;;;;2.75;2.00;;;;;23.23;40.81;99608.56;5124623;27;45460;-72
2023/03/13 09:52:39;;;;;;;;;2.00;2.00;;;;;23.19;40.43;99608.03;5120557;27;45476;-74
2023/03/13 09:55:29;;;;;;;;;2.75;2.00;;;;;23.29;40.92;99613.31;5100485;27;45433;-73
2023/03/13 09:58:07;;;;;;;;;2.00;2.00;;;;;23.29;40.75;99594.63;5089426;27;45438;-75
2023/03/13 10:00:36;;;;;;;;;2.00;2.00;;;;;23.35;40.90;99595.84;5072938;27;47835;-74
2023/03/13 10:03:11;;;;;;;;;1.00;1.00;;;;;23.36;40.37;99587.69;5094758;27;45458;-75
2023/03/13 10:06:18;;;;;;;;;1.75;1.50;;;;;23.42;40.36;99592.41;5089840;27;45400;-86
2023/03/13 10:08:43;;;;;;;;;2.00;2.00;;;;;23.41;40.70;99582.72;4984155;28;45614;-77
2023/03/13 10:11:10;;;;;;;;;1.00;1.00;;;;;23.47;40.32;99592.78;5063450;27;47741;-75
2023/03/13 10:14:03;;;;;;;;;2.50;1.25;;;;;23.49;40.62;99596.13;5076587;27;45775;-80
2023/03/13 10:16:43;;;;;;;;;2.50;1.50;;;;;23.51;40.13;99593.31;5101227;27;45434;-79
2023/03/13 10:19:17;;;;;;;;;3.00;1.00;;;;;23.51;40.43;99577.28;5093713;27;45237;-80
2023/03/13 10:21:46;;;;;;;;;2.25;1.50;;;;;23.56;40.07;99592.88;5103917;27;45437;-80
2023/03/13 10:24:40;;;;;;;;;2.00;1.00;;;;;23.57;39.92;99578.50;5100513;27;45768;-80
2023/03/13 10:27:08;;;;;;;;;1.25;1.00;;;;;23.56;40.05;99574.19;5109796;27;45591;-79
2023/03/13 10:29:33;;;;;;;;;2.00;2.00;;;;;23.58;40.11;99562.34;5106028;27;45438;-80
2023/03/13 10:31:59;;;;;;;;;1.25;1.25;;;;;23.60;40.31;99564.84;5099005;27;47648;-74
2023/03/13 10:34:26;;;;;;;;;3.00;2.50;;;;;23.59;40.46;99564.03;5089407;27;45249;-87
2023/03/13 10:36:56;;;;;;;;;2.00;2.00;;;;;23.62;40.18;99555.72;5096952;27;45327;-79
2023/03/13 10:39:25;;;;;;;;;2.75;1.00;;;;;23.59;39.69;99536.50;5112983;27;45502;-74
2023/03/13 10:41:56;;;;;;;;;1.50;1.50;;;;;23.62;39.80;99546.84;5086412;27;48004;-76
2023/03/13 10:44:23;;;;;;;;;3.50;1.75;;;;;23.62;40.03;99550.38;5084106;27;45416;-76
2023/03/13 10:46:50;;;;;;;;;3.50;2.25;;;;;23.62;40.36;99544.16;5089812;27;45570;-77
2023/03/13 10:49:18;;;;;;;;;2.75;1.00;;;;;23.62;40.27;99549.50;5085648;27;45251;-75
2023/03/13 10:51:55;;;;;;;;;2.00;1.75;;;;;23.60;40.04;99540.81;5092934;27;46404;-77
2023/03/13 10:54:27;;;;;;;;;2.50;1.00;;;;;23.61;39.95;99539.84;5096388;27;45639;-78
2023/03/13 10:57:17;;;;;;;;;2.25;0.75;;;;;23.62;39.99;99529.00;5093161;27;45319;-77
2023/03/13 10:59:45;;;;;;;;;1.00;1.00;;;;;23.61;39.58;99515.81;5115629;27;45505;-79
2023/03/13 11:02:37;;;;;;;;;1.00;1.00;;;;;23.62;39.75;99517.47;5082813;27;45703;-82
2023/03/13 11:05:22;;;;;;;;;1.00;1.00;;;;;23.60;39.95;99517.66;5094900;27;45532;-79
2023/03/13 11:07:48;;;;;;;;;3.00;2.00;;;;;23.57;39.53;99517.09;5115532;27;45429;-85
2023/03/13 11:10:13;;;;;;;;;3.00;1.00;;;;;23.61;39.60;99513.97;5095138;27;45473;-84
2023/03/13 11:12:46;;;;;;;;;1.50;1.50;;;;;23.60;39.55;99512.31;5116324;27;45460;-84
2023/03/13 11:15:17;;;;;;;;;2.50;1.00;;;;;23.60;39.92;99520.31;5078470;27;45529;-84
2023/03/13 11:17:46;;;;;;;;;2.00;2.00;;;;;23.60;39.92;99520.31;5108511;27;45261;-82
2023/03/13 11:20:21;;;;;;;;;1.00;1.00;;;;;23.60;39.58;99522.13;5080994;27;45515;-84
2023/03/13 11:23:13;;;;;;;;;1.00;1.00;;;;;23.60;40.08;99524.78;5116292;27;45697;-84
2023/03/13 11:26:00;;;;;;;;;1.50;1.00;;;;;23.58;39.54;99514.25;5106739;27;45661;-85
2023/03/13 11:28:28;;;;;;;;;1.00;1.00;;;;;23.57;39.79;99517.94;5099770;27;45519;-86
2023/03/13 11:31:11;;;;;;;;;1.50;1.50;;;;;23.53;39.57;99511.22;5107883;27;45481;-84
2023/03/13 11:33:52;;;;;;;;;3.00;0.00;;;;;23.56;39.75;99521.59;5102016;27;45428;-85